sensor_id;sensor_type;location;lat;lon;timestamp;P1;durP1;ratioP1;P2;durP2;ratioP2
25868;SDS011;13688;53.154;18.136;2023-05-10T00:05:00;8.15;;;4.80;;
25868;SDS011;13688;53.154;18.136;2023-05-10T00:10:23;9.53;;;4.90;;
25868;SDS011;13688;53.154;18.136;2023-05-10T00:15:45;8.73;;;4.53;;
25868;SDS011;13688;53.154;18.136;2023-05-10T00:21:08;8.35;;;4.47;;
25868;SDS011;13688;53.154;18.136;2023-05-10T00:26:31;9.28;;;4.55;;
25868;SDS011;13688;53.154;18.136;2023-05-10T00:31:54;10.67;;;4.37;;
25868;SDS011;13688;53.154;18.136;2023-05-10T00:37:17;7.73;;;4.50;;
25868;SDS011;13688;53.154;18.136;2023-05-10T00:42:39;9.98;;;4.50;;
25868;SDS011;13688;53.154;18.136;2023-05-10T00:48:04;11.03;;;4.97;;
25868;SDS011;13688;53.154;18.136;2023-05-10T00:53:26;6.60;;;4.27;;
25868;SDS011;13688;53.154;18.136;2023-05-10T00:58:50;8.33;;;4.70;;
25868;SDS011;13688;53.154;18.136;2023-05-10T01:04:13;8.30;;;4.30;;
25868;SDS011;13688;53.154;18.136;2023-05-10T01:09:36;8.85;;;4.47;;
25868;SDS011;13688;53.154;18.136;2023-05-10T01:14:59;8.97;;;4.60;;
25868;SDS011;13688;53.154;18.136;2023-05-10T01:20:24;6.00;;;4.03;;
25868;SDS011;13688;53.154;18.136;2023-05-10T01:26:07;11.27;;;4.77;;
25868;SDS011;13688;53.154;18.136;2023-05-10T01:43:06;8.90;;;4.72;;
25868;SDS011;13688;53.154;18.136;2023-05-10T01:48:32;7.47;;;3.77;;
25868;SDS011;13688;53.154;18.136;2023-05-10T01:54:04;6.53;;;4.35;;
25868;SDS011;13688;53.154;18.136;2023-05-10T01:59:30;8.27;;;4.37;;
25868;SDS011;13688;53.154;18.136;2023-05-10T02:04:55;6.10;;;3.90;;
25868;SDS011;13688;53.154;18.136;2023-05-10T02:10:19;10.30;;;4.37;;
25868;SDS011;13688;53.154;18.136;2023-05-10T02:15:48;9.80;;;4.30;;
25868;SDS011;13688;53.154;18.136;2023-05-10T02:21:12;7.30;;;4.20;;
25868;SDS011;13688;53.154;18.136;2023-05-10T02:26:37;8.23;;;3.80;;
25868;SDS011;13688;53.154;18.136;2023-05-10T02:32:01;5.95;;;4.12;;
25868;SDS011;13688;53.154;18.136;2023-05-10T02:37:26;8.13;;;4.10;;
25868;SDS011;13688;53.154;18.136;2023-05-10T02:42:50;8.33;;;4.25;;
25868;SDS011;13688;53.154;18.136;2023-05-10T02:48:15;7.70;;;4.00;;
25868;SDS011;13688;53.154;18.136;2023-05-10T02:53:38;7.00;;;4.30;;
25868;SDS011;13688;53.154;18.136;2023-05-10T02:59:03;11.45;;;4.83;;
25868;SDS011;13688;53.154;18.136;2023-05-10T03:04:25;6.08;;;3.90;;
25868;SDS011;13688;53.154;18.136;2023-05-10T03:09:48;7.70;;;4.72;;
25868;SDS011;13688;53.154;18.136;2023-05-10T03:15:11;11.65;;;4.25;;
25868;SDS011;13688;53.154;18.136;2023-05-10T03:20:42;8.05;;;4.53;;
25868;SDS011;13688;53.154;18.136;2023-05-10T03:26:23;9.30;;;4.60;;
25868;SDS011;13688;53.154;18.136;2023-05-10T03:31:43;7.10;;;4.73;;
25868;SDS011;13688;53.154;18.136;2023-05-10T03:37:05;6.73;;;4.30;;
25868;SDS011;13688;53.154;18.136;2023-05-10T03:42:27;7.83;;;4.60;;
25868;SDS011;13688;53.154;18.136;2023-05-10T03:47:50;11.97;;;4.50;;
25868;SDS011;13688;53.154;18.136;2023-05-10T03:53:13;9.27;;;4.83;;
25868;SDS011;13688;53.154;18.136;2023-05-10T03:58:35;10.03;;;5.07;;
25868;SDS011;13688;53.154;18.136;2023-05-10T04:03:58;11.53;;;4.13;;
25868;SDS011;13688;53.154;18.136;2023-05-10T04:09:22;7.20;;;4.27;;
25868;SDS011;13688;53.154;18.136;2023-05-10T04:14:44;7.97;;;3.73;;
25868;SDS011;13688;53.154;18.136;2023-05-10T04:20:07;7.60;;;4.90;;
25868;SDS011;13688;53.154;18.136;2023-05-10T04:25:29;9.65;;;4.35;;
25868;SDS011;13688;53.154;18.136;2023-05-10T04:30:52;6.85;;;4.42;;
25868;SDS011;13688;53.154;18.136;2023-05-10T04:36:20;10.00;;;4.87;;
25868;SDS011;13688;53.154;18.136;2023-05-10T04:41:43;10.32;;;4.87;;
25868;SDS011;13688;53.154;18.136;2023-05-10T04:47:06;10.33;;;4.23;;
25868;SDS011;13688;53.154;18.136;2023-05-10T04:52:29;18.03;;;4.57;;
25868;SDS011;13688;53.154;18.136;2023-05-10T04:57:51;11.93;;;4.90;;
25868;SDS011;13688;53.154;18.136;2023-05-10T05:03:14;7.47;;;4.72;;
25868;SDS011;13688;53.154;18.136;2023-05-10T05:08:37;11.93;;;4.50;;
25868;SDS011;13688;53.154;18.136;2023-05-10T05:13:59;9.43;;;4.62;;
25868;SDS011;13688;53.154;18.136;2023-05-10T05:19:23;6.97;;;3.72;;
25868;SDS011;13688;53.154;18.136;2023-05-10T05:24:46;10.70;;;4.13;;
25868;SDS011;13688;53.154;18.136;2023-05-10T05:30:10;8.90;;;4.67;;
25868;SDS011;13688;53.154;18.136;2023-05-10T05:35:37;9.63;;;4.30;;
25868;SDS011;13688;53.154;18.136;2023-05-10T05:40:58;7.40;;;4.67;;
25868;SDS011;13688;53.154;18.136;2023-05-10T05:46:20;11.38;;;4.25;;
25868;SDS011;13688;53.154;18.136;2023-05-10T05:51:42;8.50;;;4.30;;
25868;SDS011;13688;53.154;18.136;2023-05-10T05:57:06;9.50;;;3.77;;
25868;SDS011;13688;53.154;18.136;2023-05-10T06:02:30;11.67;;;3.63;;
25868;SDS011;13688;53.154;18.136;2023-05-10T06:07:52;7.37;;;3.52;;
25868;SDS011;13688;53.154;18.136;2023-05-10T06:13:15;8.63;;;3.77;;
25868;SDS011;13688;53.154;18.136;2023-05-10T06:18:38;6.70;;;3.45;;
25868;SDS011;13688;53.154;18.136;2023-05-10T06:24:01;12.07;;;3.30;;
25868;SDS011;13688;53.154;18.136;2023-05-10T06:29:23;7.95;;;3.20;;
25868;SDS011;13688;53.154;18.136;2023-05-10T06:34:45;6.20;;;3.17;;
25868;SDS011;13688;53.154;18.136;2023-05-10T06:40:08;6.43;;;3.00;;
25868;SDS011;13688;53.154;18.136;2023-05-10T06:45:31;8.60;;;2.77;;
25868;SDS011;13688;53.154;18.136;2023-05-10T06:50:53;8.30;;;2.63;;
25868;SDS011;13688;53.154;18.136;2023-05-10T06:56:15;5.75;;;3.22;;
25868;SDS011;13688;53.154;18.136;2023-05-10T07:01:37;5.12;;;2.90;;
25868;SDS011;13688;53.154;18.136;2023-05-10T07:07:00;9.33;;;3.00;;
25868;SDS011;13688;53.154;18.136;2023-05-10T07:12:23;11.40;;;2.92;;
25868;SDS011;13688;53.154;18.136;2023-05-10T07:17:46;6.47;;;2.70;;
25868;SDS011;13688;53.154;18.136;2023-05-10T07:23:10;6.45;;;2.75;;
25868;SDS011;13688;53.154;18.136;2023-05-10T07:28:33;7.78;;;3.12;;
25868;SDS011;13688;53.154;18.136;2023-05-10T07:33:55;4.10;;;2.12;;
25868;SDS011;13688;53.154;18.136;2023-05-10T07:39:18;5.35;;;2.27;;
25868;SDS011;13688;53.154;18.136;2023-05-10T07:44:42;6.30;;;2.97;;
25868;SDS011;13688;53.154;18.136;2023-05-10T07:50:05;4.17;;;2.20;;
25868;SDS011;13688;53.154;18.136;2023-05-10T07:55:27;6.70;;;2.40;;
25868;SDS011;13688;53.154;18.136;2023-05-10T08:00:50;4.33;;;2.45;;
25868;SDS011;13688;53.154;18.136;2023-05-10T08:06:14;12.80;;;2.60;;
25868;SDS011;13688;53.154;18.136;2023-05-10T08:11:37;4.92;;;2.20;;
25868;SDS011;13688;53.154;18.136;2023-05-10T08:17:00;10.18;;;2.35;;
25868;SDS011;13688;53.154;18.136;2023-05-10T08:22:24;4.50;;;2.47;;
25868;SDS011;13688;53.154;18.136;2023-05-10T08:27:46;16.02;;;5.37;;
25868;SDS011;13688;53.154;18.136;2023-05-10T08:33:09;9.95;;;2.15;;
25868;SDS011;13688;53.154;18.136;2023-05-10T08:38:34;2.77;;;1.85;;
25868;SDS011;13688;53.154;18.136;2023-05-10T08:43:57;6.03;;;2.20;;
25868;SDS011;13688;53.154;18.136;2023-05-10T08:49:22;3.70;;;2.17;;
25868;SDS011;13688;53.154;18.136;2023-05-10T08:54:47;13.20;;;3.17;;
25868;SDS011;13688;53.154;18.136;2023-05-10T09:00:10;5.22;;;2.50;;
25868;SDS011;13688;53.154;18.136;2023-05-10T09:05:34;6.08;;;1.92;;
25868;SDS011;13688;53.154;18.136;2023-05-10T09:11:02;7.17;;;2.25;;
25868;SDS011;13688;53.154;18.136;2023-05-10T09:16:26;5.70;;;2.00;;
25868;SDS011;13688;53.154;18.136;2023-05-10T09:21:50;6.70;;;2.05;;
25868;SDS011;13688;53.154;18.136;2023-05-10T09:27:12;5.12;;;2.12;;
25868;SDS011;13688;53.154;18.136;2023-05-10T09:32:40;4.08;;;2.00;;
25868;SDS011;13688;53.154;18.136;2023-05-10T09:38:04;5.25;;;2.37;;
25868;SDS011;13688;53.154;18.136;2023-05-10T09:43:27;10.45;;;2.17;;
25868;SDS011;13688;53.154;18.136;2023-05-10T09:48:50;3.23;;;2.03;;
25868;SDS011;13688;53.154;18.136;2023-05-10T09:54:16;9.13;;;2.10;;
25868;SDS011;13688;53.154;18.136;2023-05-10T09:59:42;2.87;;;1.90;;
25868;SDS011;13688;53.154;18.136;2023-05-10T10:05:03;6.72;;;2.83;;
25868;SDS011;13688;53.154;18.136;2023-05-10T10:10:28;5.22;;;2.17;;
25868;SDS011;13688;53.154;18.136;2023-05-10T10:15:51;8.50;;;2.77;;
25868;SDS011;13688;53.154;18.136;2023-05-10T10:21:14;5.47;;;2.40;;
25868;SDS011;13688;53.154;18.136;2023-05-10T10:26:38;5.03;;;2.58;;
25868;SDS011;13688;53.154;18.136;2023-05-10T10:37:58;4.70;;;2.50;;
25868;SDS011;13688;53.154;18.136;2023-05-10T10:43:23;4.85;;;2.30;;
25868;SDS011;13688;53.154;18.136;2023-05-10T10:54:27;9.43;;;2.30;;
25868;SDS011;13688;53.154;18.136;2023-05-10T10:59:51;4.08;;;2.40;;
25868;SDS011;13688;53.154;18.136;2023-05-10T11:05:40;11.08;;;2.80;;
25868;SDS011;13688;53.154;18.136;2023-05-10T11:11:06;6.72;;;2.77;;
25868;SDS011;13688;53.154;18.136;2023-05-10T11:16:40;7.40;;;2.55;;
25868;SDS011;13688;53.154;18.136;2023-05-10T11:27:29;7.03;;;2.57;;
25868;SDS011;13688;53.154;18.136;2023-05-10T11:32:53;6.05;;;2.77;;
25868;SDS011;13688;53.154;18.136;2023-05-10T11:38:16;7.17;;;2.25;;
25868;SDS011;13688;53.154;18.136;2023-05-10T11:43:39;10.30;;;2.50;;
25868;SDS011;13688;53.154;18.136;2023-05-10T11:49:03;6.03;;;2.30;;
25868;SDS011;13688;53.154;18.136;2023-05-10T11:54:27;5.28;;;1.90;;
25868;SDS011;13688;53.154;18.136;2023-05-10T11:59:57;6.42;;;2.37;;
25868;SDS011;13688;53.154;18.136;2023-05-10T12:05:22;3.90;;;2.22;;
25868;SDS011;13688;53.154;18.136;2023-05-10T12:10:46;7.10;;;2.43;;
25868;SDS011;13688;53.154;18.136;2023-05-10T12:16:18;8.57;;;4.03;;
25868;SDS011;13688;53.154;18.136;2023-05-10T12:21:43;9.85;;;2.62;;
25868;SDS011;13688;53.154;18.136;2023-05-10T12:27:07;8.33;;;2.17;;
25868;SDS011;13688;53.154;18.136;2023-05-10T12:32:48;7.30;;;2.00;;
25868;SDS011;13688;53.154;18.136;2023-05-10T12:38:32;9.33;;;2.35;;
25868;SDS011;13688;53.154;18.136;2023-05-10T12:43:56;8.33;;;2.00;;
25868;SDS011;13688;53.154;18.136;2023-05-10T12:49:18;5.67;;;2.17;;
25868;SDS011;13688;53.154;18.136;2023-05-10T12:54:41;4.85;;;2.12;;
25868;SDS011;13688;53.154;18.136;2023-05-10T13:00:04;6.03;;;2.10;;
25868;SDS011;13688;53.154;18.136;2023-05-10T13:05:27;7.33;;;2.00;;
25868;SDS011;13688;53.154;18.136;2023-05-10T13:10:50;3.45;;;2.05;;
25868;SDS011;13688;53.154;18.136;2023-05-10T13:16:13;12.43;;;3.33;;
25868;SDS011;13688;53.154;18.136;2023-05-10T13:21:35;7.42;;;2.30;;
25868;SDS011;13688;53.154;18.136;2023-05-10T13:26:59;7.70;;;2.17;;
25868;SDS011;13688;53.154;18.136;2023-05-10T13:32:21;4.00;;;1.80;;
25868;SDS011;13688;53.154;18.136;2023-05-10T13:37:44;12.90;;;2.42;;
25868;SDS011;13688;53.154;18.136;2023-05-10T13:43:07;3.83;;;2.10;;
25868;SDS011;13688;53.154;18.136;2023-05-10T13:48:30;4.30;;;2.30;;
25868;SDS011;13688;53.154;18.136;2023-05-10T13:53:53;4.78;;;2.20;;
25868;SDS011;13688;53.154;18.136;2023-05-10T13:59:16;5.47;;;2.30;;
25868;SDS011;13688;53.154;18.136;2023-05-10T14:04:39;5.67;;;2.17;;
25868;SDS011;13688;53.154;18.136;2023-05-10T14:10:05;6.70;;;2.33;;
25868;SDS011;13688;53.154;18.136;2023-05-10T14:15:29;3.10;;;1.80;;
25868;SDS011;13688;53.154;18.136;2023-05-10T14:20:51;7.97;;;2.37;;
25868;SDS011;13688;53.154;18.136;2023-05-10T14:26:14;6.10;;;2.83;;
25868;SDS011;13688;53.154;18.136;2023-05-10T14:31:37;5.12;;;2.50;;
25868;SDS011;13688;53.154;18.136;2023-05-10T14:37:00;8.65;;;2.55;;
25868;SDS011;13688;53.154;18.136;2023-05-10T14:42:23;7.75;;;2.25;;
25868;SDS011;13688;53.154;18.136;2023-05-10T14:47:47;4.67;;;2.12;;
25868;SDS011;13688;53.154;18.136;2023-05-10T14:53:11;3.80;;;2.10;;
25868;SDS011;13688;53.154;18.136;2023-05-10T14:58:34;5.10;;;2.10;;
25868;SDS011;13688;53.154;18.136;2023-05-10T15:03:58;5.17;;;2.42;;
25868;SDS011;13688;53.154;18.136;2023-05-10T15:09:21;6.87;;;2.08;;
25868;SDS011;13688;53.154;18.136;2023-05-10T15:14:44;8.18;;;2.25;;
25868;SDS011;13688;53.154;18.136;2023-05-10T15:20:07;7.95;;;2.27;;
25868;SDS011;13688;53.154;18.136;2023-05-10T15:25:30;7.40;;;3.55;;
25868;SDS011;13688;53.154;18.136;2023-05-10T15:30:54;6.92;;;2.45;;
25868;SDS011;13688;53.154;18.136;2023-05-10T15:36:17;9.05;;;2.33;;
25868;SDS011;13688;53.154;18.136;2023-05-10T15:41:39;6.40;;;2.37;;
25868;SDS011;13688;53.154;18.136;2023-05-10T15:47:02;3.95;;;2.33;;
25868;SDS011;13688;53.154;18.136;2023-05-10T15:52:24;3.58;;;2.20;;
25868;SDS011;13688;53.154;18.136;2023-05-10T15:57:47;6.15;;;2.80;;
25868;SDS011;13688;53.154;18.136;2023-05-10T16:03:10;6.55;;;2.30;;
25868;SDS011;13688;53.154;18.136;2023-05-10T16:08:33;5.33;;;2.62;;
25868;SDS011;13688;53.154;18.136;2023-05-10T16:13:57;6.15;;;2.17;;
25868;SDS011;13688;53.154;18.136;2023-05-10T16:19:19;6.55;;;2.40;;
25868;SDS011;13688;53.154;18.136;2023-05-10T16:24:42;8.28;;;3.17;;
25868;SDS011;13688;53.154;18.136;2023-05-10T16:30:07;7.28;;;2.45;;
25868;SDS011;13688;53.154;18.136;2023-05-10T16:35:31;4.58;;;2.05;;
25868;SDS011;13688;53.154;18.136;2023-05-10T16:40:54;7.92;;;2.10;;
25868;SDS011;13688;53.154;18.136;2023-05-10T16:46:20;4.40;;;2.40;;
25868;SDS011;13688;53.154;18.136;2023-05-10T16:51:43;3.85;;;2.08;;
25868;SDS011;13688;53.154;18.136;2023-05-10T16:57:05;4.78;;;2.37;;
25868;SDS011;13688;53.154;18.136;2023-05-10T17:02:28;5.65;;;2.20;;
25868;SDS011;13688;53.154;18.136;2023-05-10T17:07:51;4.55;;;2.20;;
25868;SDS011;13688;53.154;18.136;2023-05-10T17:13:15;4.47;;;2.00;;
25868;SDS011;13688;53.154;18.136;2023-05-10T17:18:39;6.25;;;1.95;;
25868;SDS011;13688;53.154;18.136;2023-05-10T17:24:03;3.02;;;1.90;;
25868;SDS011;13688;53.154;18.136;2023-05-10T17:29:26;6.33;;;2.37;;
25868;SDS011;13688;53.154;18.136;2023-05-10T17:34:48;7.47;;;4.90;;
25868;SDS011;13688;53.154;18.136;2023-05-10T17:40:11;5.67;;;2.20;;
25868;SDS011;13688;53.154;18.136;2023-05-10T17:45:34;3.15;;;2.30;;
25868;SDS011;13688;53.154;18.136;2023-05-10T17:50:58;6.00;;;2.22;;
25868;SDS011;13688;53.154;18.136;2023-05-10T17:56:21;5.10;;;2.30;;
25868;SDS011;13688;53.154;18.136;2023-05-10T18:01:43;6.75;;;2.55;;
25868;SDS011;13688;53.154;18.136;2023-05-10T18:07:07;5.15;;;2.42;;
25868;SDS011;13688;53.154;18.136;2023-05-10T18:12:30;8.00;;;2.45;;
25868;SDS011;13688;53.154;18.136;2023-05-10T18:17:56;8.08;;;2.58;;
25868;SDS011;13688;53.154;18.136;2023-05-10T18:23:20;5.90;;;2.50;;
25868;SDS011;13688;53.154;18.136;2023-05-10T18:28:42;4.05;;;2.22;;
25868;SDS011;13688;53.154;18.136;2023-05-10T18:34:05;5.00;;;2.58;;
25868;SDS011;13688;53.154;18.136;2023-05-10T18:39:28;4.75;;;2.25;;
25868;SDS011;13688;53.154;18.136;2023-05-10T18:44:53;5.65;;;2.40;;
25868;SDS011;13688;53.154;18.136;2023-05-10T18:50:16;5.85;;;3.05;;
25868;SDS011;13688;53.154;18.136;2023-05-10T18:55:39;8.95;;;2.60;;
25868;SDS011;13688;53.154;18.136;2023-05-10T19:01:04;6.90;;;2.77;;
25868;SDS011;13688;53.154;18.136;2023-05-10T19:06:27;6.83;;;2.90;;
25868;SDS011;13688;53.154;18.136;2023-05-10T19:11:50;7.58;;;2.90;;
25868;SDS011;13688;53.154;18.136;2023-05-10T19:17:12;11.00;;;3.67;;
25868;SDS011;13688;53.154;18.136;2023-05-10T19:22:37;10.28;;;3.30;;
25868;SDS011;13688;53.154;18.136;2023-05-10T19:28:01;7.17;;;3.62;;
25868;SDS011;13688;53.154;18.136;2023-05-10T19:33:23;7.85;;;3.55;;
25868;SDS011;13688;53.154;18.136;2023-05-10T19:38:46;16.95;;;11.00;;
25868;SDS011;13688;53.154;18.136;2023-05-10T19:44:08;6.95;;;3.60;;
25868;SDS011;13688;53.154;18.136;2023-05-10T19:49:31;8.60;;;3.62;;
25868;SDS011;13688;53.154;18.136;2023-05-10T19:54:54;8.78;;;3.40;;
25868;SDS011;13688;53.154;18.136;2023-05-10T20:00:17;7.75;;;3.50;;
25868;SDS011;13688;53.154;18.136;2023-05-10T20:05:40;7.75;;;3.62;;
25868;SDS011;13688;53.154;18.136;2023-05-10T20:11:03;9.00;;;3.12;;
25868;SDS011;13688;53.154;18.136;2023-05-10T20:16:25;8.85;;;3.55;;
25868;SDS011;13688;53.154;18.136;2023-05-10T20:21:48;9.88;;;3.47;;
25868;SDS011;13688;53.154;18.136;2023-05-10T20:27:12;7.20;;;3.45;;
25868;SDS011;13688;53.154;18.136;2023-05-10T20:32:35;12.93;;;3.22;;
25868;SDS011;13688;53.154;18.136;2023-05-10T20:37:57;7.55;;;3.45;;
25868;SDS011;13688;53.154;18.136;2023-05-10T20:43:20;8.40;;;3.87;;
25868;SDS011;13688;53.154;18.136;2023-05-10T20:48:43;9.18;;;3.20;;
25868;SDS011;13688;53.154;18.136;2023-05-10T20:54:06;7.80;;;3.25;;
25868;SDS011;13688;53.154;18.136;2023-05-10T20:59:29;9.33;;;3.10;;
25868;SDS011;13688;53.154;18.136;2023-05-10T21:04:52;5.85;;;3.40;;
25868;SDS011;13688;53.154;18.136;2023-05-10T21:10:15;6.83;;;3.35;;
25868;SDS011;13688;53.154;18.136;2023-05-10T21:15:37;7.62;;;3.20;;
25868;SDS011;13688;53.154;18.136;2023-05-10T21:20:59;10.45;;;3.45;;
25868;SDS011;13688;53.154;18.136;2023-05-10T21:26:22;5.62;;;3.05;;
25868;SDS011;13688;53.154;18.136;2023-05-10T21:31:44;5.65;;;3.50;;
25868;SDS011;13688;53.154;18.136;2023-05-10T21:37:07;7.10;;;3.67;;
25868;SDS011;13688;53.154;18.136;2023-05-10T21:42:30;7.33;;;3.42;;
25868;SDS011;13688;53.154;18.136;2023-05-10T21:47:52;7.78;;;3.25;;
25868;SDS011;13688;53.154;18.136;2023-05-10T21:53:15;10.53;;;3.95;;
25868;SDS011;13688;53.154;18.136;2023-05-10T21:58:38;8.43;;;3.10;;
25868;SDS011;13688;53.154;18.136;2023-05-10T22:04:00;6.40;;;3.40;;
25868;SDS011;13688;53.154;18.136;2023-05-10T22:09:24;9.83;;;3.50;;
25868;SDS011;13688;53.154;18.136;2023-05-10T22:14:46;8.58;;;3.40;;
25868;SDS011;13688;53.154;18.136;2023-05-10T22:20:10;6.05;;;3.42;;
25868;SDS011;13688;53.154;18.136;2023-05-10T22:25:33;7.78;;;3.40;;
25868;SDS011;13688;53.154;18.136;2023-05-10T22:30:55;6.60;;;3.20;;
25868;SDS011;13688;53.154;18.136;2023-05-10T22:36:18;6.95;;;3.35;;
25868;SDS011;13688;53.154;18.136;2023-05-10T22:41:41;7.87;;;3.65;;
25868;SDS011;13688;53.154;18.136;2023-05-10T22:47:03;7.53;;;3.40;;
25868;SDS011;13688;53.154;18.136;2023-05-10T22:52:26;5.25;;;2.92;;
25868;SDS011;13688;53.154;18.136;2023-05-10T22:57:49;10.10;;;3.62;;
25868;SDS011;13688;53.154;18.136;2023-05-10T23:03:11;6.15;;;3.95;;
25868;SDS011;13688;53.154;18.136;2023-05-10T23:08:34;7.10;;;2.90;;
25868;SDS011;13688;53.154;18.136;2023-05-10T23:13:57;9.35;;;3.50;;
25868;SDS011;13688;53.154;18.136;2023-05-10T23:19:19;4.60;;;3.17;;
25868;SDS011;13688;53.154;18.136;2023-05-10T23:24:41;6.22;;;3.65;;
25868;SDS011;13688;53.154;18.136;2023-05-10T23:30:04;5.47;;;3.47;;
25868;SDS011;13688;53.154;18.136;2023-05-10T23:35:27;10.32;;;3.70;;
25868;SDS011;13688;53.154;18.136;2023-05-10T23:40:49;7.47;;;3.30;;
25868;SDS011;13688;53.154;18.136;2023-05-10T23:46:11;8.65;;;3.00;;
25868;SDS011;13688;53.154;18.136;2023-05-10T23:51:34;5.28;;;3.05;;
25868;SDS011;13688;53.154;18.136;2023-05-10T23:56:56;4.92;;;3.40;;
